sensor_id;sensor_type;location;lat;lon;timestamp;temperature;humidity
3402;DHT22;1714;49.756;8.610;2022-09-09T00:09:31;17.90;47.70
3402;DHT22;1714;49.756;8.610;2022-09-09T00:19:56;18.00;48.30
3402;DHT22;1714;49.756;8.610;2022-09-09T00:30:14;18.00;49.30
3402;DHT22;1714;49.756;8.610;2022-09-09T00:40:34;17.90;48.80
3402;DHT22;1714;49.756;8.610;2022-09-09T00:51:05;18.00;49.80
3402;DHT22;1714;49.756;8.610;2022-09-09T01:01:13;18.10;49.40
3402;DHT22;1714;49.756;8.610;2022-09-09T01:22:01;18.10;49.80
3402;DHT22;1714;49.756;8.610;2022-09-09T01:32:38;17.80;49.70
3402;DHT22;1714;49.756;8.610;2022-09-09T01:42:43;17.60;52.40
3402;DHT22;1714;49.756;8.610;2022-09-09T01:52:49;17.70;53.40
3402;DHT22;1714;49.756;8.610;2022-09-09T02:03:14;17.60;55.00
3402;DHT22;1714;49.756;8.610;2022-09-09T02:13:29;17.70;56.30
3402;DHT22;1714;49.756;8.610;2022-09-09T02:23:36;17.50;57.80
3402;DHT22;1714;49.756;8.610;2022-09-09T02:33:48;17.50;58.60
3402;DHT22;1714;49.756;8.610;2022-09-09T02:43:51;17.50;61.00
3402;DHT22;1714;49.756;8.610;2022-09-09T03:04:26;17.50;60.10
3402;DHT22;1714;49.756;8.610;2022-09-09T03:14:28;17.40;61.50
3402;DHT22;1714;49.756;8.610;2022-09-09T03:24:31;17.40;63.30
3402;DHT22;1714;49.756;8.610;2022-09-09T03:34:35;17.20;65.60
3402;DHT22;1714;49.756;8.610;2022-09-09T03:44:44;17.20;68.20
3402;DHT22;1714;49.756;8.610;2022-09-09T03:54:56;17.30;66.40
3402;DHT22;1714;49.756;8.610;2022-09-09T04:04:58;17.10;67.40
3402;DHT22;1714;49.756;8.610;2022-09-09T04:15:01;17.20;67.40
3402;DHT22;1714;49.756;8.610;2022-09-09T04:25:10;17.20;67.40
3402;DHT22;1714;49.756;8.610;2022-09-09T04:35:12;16.90;69.70
3402;DHT22;1714;49.756;8.610;2022-09-09T04:45:14;16.90;70.50
3402;DHT22;1714;49.756;8.610;2022-09-09T04:55:17;16.80;71.30
3402;DHT22;1714;49.756;8.610;2022-09-09T05:05:19;16.80;71.00
3402;DHT22;1714;49.756;8.610;2022-09-09T05:15:22;16.70;72.00
3402;DHT22;1714;49.756;8.610;2022-09-09T05:25:25;16.70;71.70
3402;DHT22;1714;49.756;8.610;2022-09-09T05:35:27;16.90;70.90
3402;DHT22;1714;49.756;8.610;2022-09-09T05:45:30;17.00;69.60
3402;DHT22;1714;49.756;8.610;2022-09-09T05:55:33;16.70;71.10
3402;DHT22;1714;49.756;8.610;2022-09-09T06:05:39;17.00;69.60
3402;DHT22;1714;49.756;8.610;2022-09-09T06:15:53;17.00;68.30
3402;DHT22;1714;49.756;8.610;2022-09-09T06:26:08;17.30;66.60
3402;DHT22;1714;49.756;8.610;2022-09-09T06:36:21;17.50;65.40
3402;DHT22;1714;49.756;8.610;2022-09-09T06:46:32;17.60;63.60
3402;DHT22;1714;49.756;8.610;2022-09-09T06:56:40;17.90;60.90
3402;DHT22;1714;49.756;8.610;2022-09-09T07:06:51;17.70;61.20
3402;DHT22;1714;49.756;8.610;2022-09-09T07:16:56;18.00;59.40
3402;DHT22;1714;49.756;8.610;2022-09-09T07:27:04;18.10;59.50
3402;DHT22;1714;49.756;8.610;2022-09-09T07:37:08;18.10;60.60
3402;DHT22;1714;49.756;8.610;2022-09-09T07:47:19;18.10;61.60
3402;DHT22;1714;49.756;8.610;2022-09-09T07:57:21;18.30;62.20
3402;DHT22;1714;49.756;8.610;2022-09-09T08:07:24;18.50;55.90
3402;DHT22;1714;49.756;8.610;2022-09-09T08:17:27;18.60;51.30
3402;DHT22;1714;49.756;8.610;2022-09-09T08:27:33;19.70;48.60
3402;DHT22;1714;49.756;8.610;2022-09-09T08:37:36;20.00;42.20
3402;DHT22;1714;49.756;8.610;2022-09-09T08:48:01;19.80;40.20
3402;DHT22;1714;49.756;8.610;2022-09-09T08:58:18;20.00;41.80
3402;DHT22;1714;49.756;8.610;2022-09-09T09:18:27;20.70;36.40
3402;DHT22;1714;49.756;8.610;2022-09-09T09:28:35;21.40;37.50
3402;DHT22;1714;49.756;8.610;2022-09-09T09:38:56;20.90;35.50
3402;DHT22;1714;49.756;8.610;2022-09-09T09:49:22;20.50;36.20
3402;DHT22;1714;49.756;8.610;2022-09-09T09:59:35;20.10;36.30
3402;DHT22;1714;49.756;8.610;2022-09-09T10:09:56;20.40;40.50
3402;DHT22;1714;49.756;8.610;2022-09-09T10:41:54;21.80;27.80
3402;DHT22;1714;49.756;8.610;2022-09-09T11:02:35;23.20;20.90
3402;DHT22;1714;49.756;8.610;2022-09-09T11:12:38;23.10;22.90
3402;DHT22;1714;49.756;8.610;2022-09-09T11:22:58;23.30;18.70
3402;DHT22;1714;49.756;8.610;2022-09-09T11:43:46;23.10;19.20
3402;DHT22;1714;49.756;8.610;2022-09-09T11:53:51;23.90;19.30
3402;DHT22;1714;49.756;8.610;2022-09-09T12:14:04;21.90;22.40
3402;DHT22;1714;49.756;8.610;2022-09-09T12:24:11;21.80;21.60
3402;DHT22;1714;49.756;8.610;2022-09-09T12:34:27;22.30;19.90
3402;DHT22;1714;49.756;8.610;2022-09-09T12:44:33;21.90;20.20
3402;DHT22;1714;49.756;8.610;2022-09-09T12:54:36;21.70;18.80
3402;DHT22;1714;49.756;8.610;2022-09-09T13:04:38;21.90;17.90
3402;DHT22;1714;49.756;8.610;2022-09-09T13:14:46;21.10;18.30
3402;DHT22;1714;49.756;8.610;2022-09-09T13:25:17;20.90;20.80
3402;DHT22;1714;49.756;8.610;2022-09-09T13:35:24;20.60;28.00
3402;DHT22;1714;49.756;8.610;2022-09-09T13:45:28;20.20;32.00
3402;DHT22;1714;49.756;8.610;2022-09-09T13:55:31;20.10;34.50
3402;DHT22;1714;49.756;8.610;2022-09-09T14:05:34;20.50;35.20
3402;DHT22;1714;49.756;8.610;2022-09-09T14:15:36;20.20;36.40
3402;DHT22;1714;49.756;8.610;2022-09-09T14:25:43;20.90;31.10
3402;DHT22;1714;49.756;8.610;2022-09-09T14:35:45;20.60;30.60
3402;DHT22;1714;49.756;8.610;2022-09-09T14:45:50;20.50;32.20
3402;DHT22;1714;49.756;8.610;2022-09-09T14:56:06;20.20;34.70
3402;DHT22;1714;49.756;8.610;2022-09-09T15:06:14;20.20;35.90
3402;DHT22;1714;49.756;8.610;2022-09-09T15:16:27;20.20;36.20
3402;DHT22;1714;49.756;8.610;2022-09-09T15:26:43;20.20;35.70
3402;DHT22;1714;49.756;8.610;2022-09-09T15:36:46;20.00;36.80
3402;DHT22;1714;49.756;8.610;2022-09-09T15:46:53;19.90;39.50
3402;DHT22;1714;49.756;8.610;2022-09-09T15:56:58;19.80;37.70
3402;DHT22;1714;49.756;8.610;2022-09-09T16:07:03;19.50;35.60
3402;DHT22;1714;49.756;8.610;2022-09-09T16:17:05;19.60;34.60
3402;DHT22;1714;49.756;8.610;2022-09-09T16:27:08;19.60;34.90
3402;DHT22;1714;49.756;8.610;2022-09-09T16:37:11;19.30;37.30
3402;DHT22;1714;49.756;8.610;2022-09-09T16:47:13;19.20;37.00
3402;DHT22;1714;49.756;8.610;2022-09-09T16:57:14;18.90;39.00
3402;DHT22;1714;49.756;8.610;2022-09-09T17:07:17;18.50;41.60
3402;DHT22;1714;49.756;8.610;2022-09-09T17:17:20;18.60;43.50
3402;DHT22;1714;49.756;8.610;2022-09-09T17:27:33;18.30;45.30
3402;DHT22;1714;49.756;8.610;2022-09-09T17:37:35;18.20;47.00
3402;DHT22;1714;49.756;8.610;2022-09-09T17:47:38;18.20;47.00
3402;DHT22;1714;49.756;8.610;2022-09-09T17:57:40;18.20;45.80
3402;DHT22;1714;49.756;8.610;2022-09-09T18:07:43;18.00;46.10
3402;DHT22;1714;49.756;8.610;2022-09-09T18:17:45;18.10;47.80
3402;DHT22;1714;49.756;8.610;2022-09-09T18:27:46;17.50;55.80
3402;DHT22;1714;49.756;8.610;2022-09-09T18:37:48;17.20;75.90
3402;DHT22;1714;49.756;8.610;2022-09-09T18:47:50;17.20;77.40
3402;DHT22;1714;49.756;8.610;2022-09-09T18:57:53;17.10;71.80
3402;DHT22;1714;49.756;8.610;2022-09-09T19:07:55;17.10;74.30
3402;DHT22;1714;49.756;8.610;2022-09-09T19:17:57;16.80;73.30
3402;DHT22;1714;49.756;8.610;2022-09-09T19:28:05;16.60;74.30
3402;DHT22;1714;49.756;8.610;2022-09-09T19:38:07;16.80;76.10
3402;DHT22;1714;49.756;8.610;2022-09-09T19:48:09;16.60;83.70
3402;DHT22;1714;49.756;8.610;2022-09-09T19:58:11;16.60;86.10
3402;DHT22;1714;49.756;8.610;2022-09-09T20:08:14;16.50;92.40
3402;DHT22;1714;49.756;8.610;2022-09-09T20:18:16;16.60;91.80
3402;DHT22;1714;49.756;8.610;2022-09-09T20:28:18;16.30;93.70
3402;DHT22;1714;49.756;8.610;2022-09-09T20:38:21;16.20;93.40
3402;DHT22;1714;49.756;8.610;2022-09-09T20:48:23;16.50;89.50
3402;DHT22;1714;49.756;8.610;2022-09-09T20:58:28;16.30;90.90
3402;DHT22;1714;49.756;8.610;2022-09-09T21:08:32;16.30;88.10
3402;DHT22;1714;49.756;8.610;2022-09-09T21:18:39;16.00;90.90
3402;DHT22;1714;49.756;8.610;2022-09-09T21:28:42;16.10;87.90
3402;DHT22;1714;49.756;8.610;2022-09-09T21:38:44;15.90;90.40
3402;DHT22;1714;49.756;8.610;2022-09-09T21:48:45;16.00;91.30
3402;DHT22;1714;49.756;8.610;2022-09-09T21:58:56;16.00;91.60
3402;DHT22;1714;49.756;8.610;2022-09-09T22:08:58;16.00;90.10
3402;DHT22;1714;49.756;8.610;2022-09-09T22:19:04;16.00;89.80
3402;DHT22;1714;49.756;8.610;2022-09-09T22:29:07;15.80;87.10
3402;DHT22;1714;49.756;8.610;2022-09-09T22:39:09;15.70;93.60
3402;DHT22;1714;49.756;8.610;2022-09-09T22:49:14;15.80;96.00
3402;DHT22;1714;49.756;8.610;2022-09-09T22:59:18;15.90;95.50
3402;DHT22;1714;49.756;8.610;2022-09-09T23:09:20;16.00;95.50
3402;DHT22;1714;49.756;8.610;2022-09-09T23:19:22;15.80;98.90
3402;DHT22;1714;49.756;8.610;2022-09-09T23:29:25;15.90;99.90
3402;DHT22;1714;49.756;8.610;2022-09-09T23:39:26;16.00;99.90
3402;DHT22;1714;49.756;8.610;2022-09-09T23:49:28;15.90;99.90
3402;DHT22;1714;49.756;8.610;2022-09-09T23:59:33;16.00;99.90
